sensor_id;sensor_type;location;lat;lon;timestamp;pressure;altitude;pressure_sealevel;temperature;humidity
10948;BME280;5526;42.070;24.752;2024-03-08T00:01:02;99166.16;;;7.82;100.00
10948;BME280;5526;42.070;24.752;2024-03-08T00:03:29;99166.38;;;7.92;100.00
10948;BME280;5526;42.070;24.752;2024-03-08T00:05:56;99170.44;;;8.00;100.00
10948;BME280;5526;42.070;24.752;2024-03-08T00:08:23;99162.13;;;8.03;100.00
10948;BME280;5526;42.070;24.752;2024-03-08T00:10:50;99160.28;;;8.03;100.00
10948;BME280;5526;42.070;24.752;2024-03-08T00:13:18;99147.38;;;8.13;100.00
10948;BME280;5526;42.070;24.752;2024-03-08T00:15:45;99149.19;;;8.13;100.00
10948;BME280;5526;42.070;24.752;2024-03-08T00:18:13;99151.59;;;8.14;100.00
10948;BME280;5526;42.070;24.752;2024-03-08T00:20:40;99154.44;;;8.13;100.00
10948;BME280;5526;42.070;24.752;2024-03-08T00:23:07;99150.47;;;8.10;100.00
10948;BME280;5526;42.070;24.752;2024-03-08T00:25:34;99156.97;;;8.08;100.00
10948;BME280;5526;42.070;24.752;2024-03-08T00:28:01;99152.19;;;8.05;100.00
10948;BME280;5526;42.070;24.752;2024-03-08T00:30:30;99142.59;;;8.10;100.00
10948;BME280;5526;42.070;24.752;2024-03-08T00:32:57;99150.31;;;8.17;100.00
10948;BME280;5526;42.070;24.752;2024-03-08T00:35:26;99147.91;;;8.15;100.00
10948;BME280;5526;42.070;24.752;2024-03-08T00:37:53;99154.78;;;8.16;100.00
10948;BME280;5526;42.070;24.752;2024-03-08T00:40:22;99149.53;;;8.16;100.00
10948;BME280;5526;42.070;24.752;2024-03-08T00:42:49;99153.63;;;8.24;100.00
10948;BME280;5526;42.070;24.752;2024-03-08T00:45:16;99150.53;;;8.27;100.00
10948;BME280;5526;42.070;24.752;2024-03-08T00:47:43;99137.56;;;8.20;100.00
10948;BME280;5526;42.070;24.752;2024-03-08T00:50:11;99149.28;;;8.29;100.00
10948;BME280;5526;42.070;24.752;2024-03-08T00:52:39;99142.44;;;8.28;100.00
10948;BME280;5526;42.070;24.752;2024-03-08T00:55:07;99144.63;;;8.20;100.00
10948;BME280;5526;42.070;24.752;2024-03-08T00:57:36;99137.44;;;8.15;100.00
10948;BME280;5526;42.070;24.752;2024-03-08T01:00:05;99138.25;;;8.16;100.00
10948;BME280;5526;42.070;24.752;2024-03-08T01:02:37;99134.28;;;8.13;100.00
10948;BME280;5526;42.070;24.752;2024-03-08T01:05:05;99138.94;;;8.11;100.00
10948;BME280;5526;42.070;24.752;2024-03-08T01:07:33;99141.00;;;8.09;100.00
10948;BME280;5526;42.070;24.752;2024-03-08T01:10:01;99130.44;;;8.04;100.00
10948;BME280;5526;42.070;24.752;2024-03-08T01:12:28;99138.09;;;7.94;100.00
10948;BME280;5526;42.070;24.752;2024-03-08T01:14:56;99129.78;;;7.97;100.00
10948;BME280;5526;42.070;24.752;2024-03-08T01:17:24;99129.31;;;8.00;100.00
10948;BME280;5526;42.070;24.752;2024-03-08T01:19:51;99133.59;;;8.06;100.00
10948;BME280;5526;42.070;24.752;2024-03-08T01:22:18;99129.63;;;8.04;100.00
10948;BME280;5526;42.070;24.752;2024-03-08T01:24:45;99134.56;;;8.00;100.00
10948;BME280;5526;42.070;24.752;2024-03-08T01:27:14;99140.44;;;8.07;100.00
10948;BME280;5526;42.070;24.752;2024-03-08T01:29:41;99146.41;;;8.03;100.00
10948;BME280;5526;42.070;24.752;2024-03-08T01:32:08;99141.69;;;8.05;100.00
10948;BME280;5526;42.070;24.752;2024-03-08T01:34:35;99136.69;;;8.03;100.00
10948;BME280;5526;42.070;24.752;2024-03-08T01:37:02;99145.91;;;8.06;100.00
10948;BME280;5526;42.070;24.752;2024-03-08T01:39:29;99142.16;;;8.02;100.00
10948;BME280;5526;42.070;24.752;2024-03-08T01:41:57;99153.69;;;8.01;100.00
10948;BME280;5526;42.070;24.752;2024-03-08T01:44:26;99154.34;;;8.08;100.00
10948;BME280;5526;42.070;24.752;2024-03-08T01:46:53;99148.44;;;8.01;100.00
10948;BME280;5526;42.070;24.752;2024-03-08T01:49:21;99153.00;;;7.94;100.00
10948;BME280;5526;42.070;24.752;2024-03-08T01:51:49;99146.75;;;7.95;100.00
10948;BME280;5526;42.070;24.752;2024-03-08T01:54:17;99154.41;;;7.96;100.00
10948;BME280;5526;42.070;24.752;2024-03-08T01:56:45;99143.00;;;7.91;100.00
10948;BME280;5526;42.070;24.752;2024-03-08T01:59:13;99150.97;;;7.84;100.00
10948;BME280;5526;42.070;24.752;2024-03-08T02:01:42;99150.06;;;7.90;100.00
10948;BME280;5526;42.070;24.752;2024-03-08T02:04:10;99143.69;;;7.86;100.00
10948;BME280;5526;42.070;24.752;2024-03-08T02:06:37;99153.28;;;7.81;100.00
10948;BME280;5526;42.070;24.752;2024-03-08T02:09:05;99144.16;;;7.83;100.00
10948;BME280;5526;42.070;24.752;2024-03-08T02:11:32;99147.13;;;7.87;100.00
10948;BME280;5526;42.070;24.752;2024-03-08T02:14:00;99145.63;;;7.91;100.00
10948;BME280;5526;42.070;24.752;2024-03-08T02:16:27;99147.53;;;7.95;100.00
10948;BME280;5526;42.070;24.752;2024-03-08T02:18:55;99145.06;;;7.89;100.00
10948;BME280;5526;42.070;24.752;2024-03-08T02:21:24;99146.78;;;7.83;100.00
10948;BME280;5526;42.070;24.752;2024-03-08T02:23:52;99146.22;;;7.81;100.00
10948;BME280;5526;42.070;24.752;2024-03-08T02:26:19;99147.81;;;7.82;100.00
10948;BME280;5526;42.070;24.752;2024-03-08T02:28:46;99139.50;;;7.74;100.00
10948;BME280;5526;42.070;24.752;2024-03-08T02:31:14;99147.59;;;7.72;100.00
10948;BME280;5526;42.070;24.752;2024-03-08T02:33:42;99143.63;;;7.70;100.00
10948;BME280;5526;42.070;24.752;2024-03-08T02:36:09;99145.47;;;7.69;100.00
10948;BME280;5526;42.070;24.752;2024-03-08T02:38:38;99141.34;;;7.62;100.00
10948;BME280;5526;42.070;24.752;2024-03-08T02:41:07;99148.84;;;7.70;100.00
10948;BME280;5526;42.070;24.752;2024-03-08T02:43:34;99148.84;;;7.70;100.00
10948;BME280;5526;42.070;24.752;2024-03-08T02:46:01;99150.91;;;7.68;100.00
10948;BME280;5526;42.070;24.752;2024-03-08T02:48:29;99153.09;;;7.71;100.00
10948;BME280;5526;42.070;24.752;2024-03-08T02:50:56;99156.94;;;7.68;100.00
10948;BME280;5526;42.070;24.752;2024-03-08T02:53:23;99149.78;;;7.64;100.00
10948;BME280;5526;42.070;24.752;2024-03-08T02:55:52;99157.28;;;7.60;100.00
10948;BME280;5526;42.070;24.752;2024-03-08T02:58:20;99153.53;;;7.56;100.00
10948;BME280;5526;42.070;24.752;2024-03-08T03:00:47;99147.50;;;7.67;100.00
10948;BME280;5526;42.070;24.752;2024-03-08T03:03:15;99147.28;;;7.69;100.00
10948;BME280;5526;42.070;24.752;2024-03-08T03:05:42;99148.41;;;7.73;100.00
10948;BME280;5526;42.070;24.752;2024-03-08T03:08:09;99153.63;;;7.73;100.00
10948;BME280;5526;42.070;24.752;2024-03-08T03:10:37;99149.22;;;7.73;100.00
10948;BME280;5526;42.070;24.752;2024-03-08T03:13:05;99142.84;;;7.69;100.00
10948;BME280;5526;42.070;24.752;2024-03-08T03:15:34;99150.03;;;7.62;100.00
10948;BME280;5526;42.070;24.752;2024-03-08T03:18:02;99151.16;;;7.66;100.00
10948;BME280;5526;42.070;24.752;2024-03-08T03:20:29;99157.97;;;7.67;100.00
10948;BME280;5526;42.070;24.752;2024-03-08T03:22:58;99155.72;;;7.59;100.00
10948;BME280;5526;42.070;24.752;2024-03-08T03:25:27;99153.22;;;7.53;100.00
10948;BME280;5526;42.070;24.752;2024-03-08T03:27:59;99157.88;;;7.51;100.00
10948;BME280;5526;42.070;24.752;2024-03-08T03:30:28;99163.47;;;7.54;100.00
10948;BME280;5526;42.070;24.752;2024-03-08T03:32:59;99164.81;;;7.57;100.00
10948;BME280;5526;42.070;24.752;2024-03-08T03:35:28;99167.44;;;7.57;100.00
10948;BME280;5526;42.070;24.752;2024-03-08T03:37:55;99169.03;;;7.58;100.00
10948;BME280;5526;42.070;24.752;2024-03-08T03:40:32;99167.91;;;7.54;100.00
10948;BME280;5526;42.070;24.752;2024-03-08T03:42:59;99169.25;;;7.56;100.00
10948;BME280;5526;42.070;24.752;2024-03-08T03:45:28;99159.72;;;7.50;100.00
10948;BME280;5526;42.070;24.752;2024-03-08T03:47:59;99171.31;;;7.54;100.00
10948;BME280;5526;42.070;24.752;2024-03-08T03:50:26;99174.97;;;7.53;100.00
10948;BME280;5526;42.070;24.752;2024-03-08T03:52:53;99169.38;;;7.50;100.00
10948;BME280;5526;42.070;24.752;2024-03-08T03:55:20;99173.94;;;7.31;100.00
10948;BME280;5526;42.070;24.752;2024-03-08T03:57:47;99176.66;;;7.36;100.00
10948;BME280;5526;42.070;24.752;2024-03-08T04:00:15;99178.84;;;7.28;100.00
10948;BME280;5526;42.070;24.752;2024-03-08T04:02:43;99180.41;;;7.17;100.00
10948;BME280;5526;42.070;24.752;2024-03-08T04:05:11;99182.25;;;7.17;100.00
10948;BME280;5526;42.070;24.752;2024-03-08T04:07:38;99174.75;;;7.09;100.00
10948;BME280;5526;42.070;24.752;2024-03-08T04:10:07;99178.03;;;7.04;100.00
10948;BME280;5526;42.070;24.752;2024-03-08T04:12:35;99177.81;;;7.06;100.00
10948;BME280;5526;42.070;24.752;2024-03-08T04:15:03;99179.38;;;7.07;100.00
10948;BME280;5526;42.070;24.752;2024-03-08T04:17:32;99173.81;;;7.03;100.00
10948;BME280;5526;42.070;24.752;2024-03-08T04:20:03;99182.66;;;7.02;100.00
10948;BME280;5526;42.070;24.752;2024-03-08T04:22:35;99187.34;;;7.00;100.00
10948;BME280;5526;42.070;24.752;2024-03-08T04:25:02;99192.81;;;6.99;100.00
10948;BME280;5526;42.070;24.752;2024-03-08T04:27:29;99189.16;;;6.88;100.00
10948;BME280;5526;42.070;24.752;2024-03-08T04:29:58;99189.25;;;6.82;100.00
10948;BME280;5526;42.070;24.752;2024-03-08T04:32:25;99187.91;;;6.91;100.00
10948;BME280;5526;42.070;24.752;2024-03-08T04:34:53;99188.13;;;6.89;100.00
10948;BME280;5526;42.070;24.752;2024-03-08T04:37:22;99187.88;;;6.79;100.00
10948;BME280;5526;42.070;24.752;2024-03-08T04:39:49;99188.88;;;6.78;100.00
10948;BME280;5526;42.070;24.752;2024-03-08T04:42:16;99185.81;;;6.70;100.00
10948;BME280;5526;42.070;24.752;2024-03-08T04:44:43;99196.28;;;6.70;100.00
10948;BME280;5526;42.070;24.752;2024-03-08T04:47:11;99192.38;;;6.61;100.00
10948;BME280;5526;42.070;24.752;2024-03-08T04:49:37;99196.19;;;6.47;100.00
10948;BME280;5526;42.070;24.752;2024-03-08T04:52:05;99203.59;;;6.50;100.00
10948;BME280;5526;42.070;24.752;2024-03-08T04:54:34;99203.50;;;6.56;100.00
10948;BME280;5526;42.070;24.752;2024-03-08T04:57:01;99204.06;;;6.58;100.00
10948;BME280;5526;42.070;24.752;2024-03-08T04:59:30;99203.59;;;6.50;100.00
10948;BME280;5526;42.070;24.752;2024-03-08T05:01:57;99204.69;;;6.42;100.00
10948;BME280;5526;42.070;24.752;2024-03-08T05:04:24;99207.81;;;6.51;100.00
10948;BME280;5526;42.070;24.752;2024-03-08T05:06:51;99208.84;;;6.50;100.00
10948;BME280;5526;42.070;24.752;2024-03-08T05:09:19;99211.06;;;6.46;100.00
10948;BME280;5526;42.070;24.752;2024-03-08T05:11:47;99184.72;;;6.18;100.00
10948;BME280;5526;42.070;24.752;2024-03-08T05:14:15;99212.50;;;6.31;100.00
10948;BME280;5526;42.070;24.752;2024-03-08T05:16:45;99197.56;;;6.20;100.00
10948;BME280;5526;42.070;24.752;2024-03-08T05:19:14;99224.09;;;6.35;100.00
10948;BME280;5526;42.070;24.752;2024-03-08T05:21:43;99223.38;;;6.46;100.00
10948;BME280;5526;42.070;24.752;2024-03-08T05:24:10;99227.78;;;6.45;100.00
10948;BME280;5526;42.070;24.752;2024-03-08T05:26:38;99233.56;;;6.47;100.00
10948;BME280;5526;42.070;24.752;2024-03-08T05:29:07;99231.34;;;6.51;100.00
10948;BME280;5526;42.070;24.752;2024-03-08T05:31:42;99241.91;;;6.56;100.00
10948;BME280;5526;42.070;24.752;2024-03-08T05:34:09;99241.47;;;6.59;100.00
10948;BME280;5526;42.070;24.752;2024-03-08T05:36:36;99246.84;;;6.64;100.00
10948;BME280;5526;42.070;24.752;2024-03-08T05:39:03;99246.31;;;6.73;100.00
10948;BME280;5526;42.070;24.752;2024-03-08T05:41:32;99255.53;;;6.76;100.00
10948;BME280;5526;42.070;24.752;2024-03-08T05:43:59;99254.81;;;6.69;100.00
10948;BME280;5526;42.070;24.752;2024-03-08T05:46:27;99255.06;;;6.67;100.00
10948;BME280;5526;42.070;24.752;2024-03-08T05:48:54;99262.75;;;6.62;100.00
10948;BME280;5526;42.070;24.752;2024-03-08T05:51:23;99259.25;;;6.68;100.00
10948;BME280;5526;42.070;24.752;2024-03-08T05:53:51;99251.63;;;6.67;100.00
10948;BME280;5526;42.070;24.752;2024-03-08T05:56:19;99263.34;;;6.64;100.00
10948;BME280;5526;42.070;24.752;2024-03-08T05:58:46;99265.63;;;6.72;100.00
10948;BME280;5526;42.070;24.752;2024-03-08T06:01:14;99263.59;;;6.74;100.00
10948;BME280;5526;42.070;24.752;2024-03-08T06:03:43;99267.81;;;6.75;100.00
10948;BME280;5526;42.070;24.752;2024-03-08T06:06:12;99275.06;;;6.73;100.00
10948;BME280;5526;42.070;24.752;2024-03-08T06:08:39;99263.03;;;6.72;100.00
10948;BME280;5526;42.070;24.752;2024-03-08T06:11:08;99273.47;;;6.72;100.00
10948;BME280;5526;42.070;24.752;2024-03-08T06:13:35;99275.91;;;6.85;100.00
10948;BME280;5526;42.070;24.752;2024-03-08T06:16:03;99282.97;;;6.85;100.00
10948;BME280;5526;42.070;24.752;2024-03-08T06:18:30;99276.13;;;6.84;100.00
10948;BME280;5526;42.070;24.752;2024-03-08T06:20:58;99282.28;;;6.89;100.00
10948;BME280;5526;42.070;24.752;2024-03-08T06:23:26;99289.91;;;6.91;100.00
10948;BME280;5526;42.070;24.752;2024-03-08T06:25:53;99278.22;;;6.93;100.00
10948;BME280;5526;42.070;24.752;2024-03-08T06:28:20;99291.88;;;6.95;100.00
10948;BME280;5526;42.070;24.752;2024-03-08T06:30:47;99294.13;;;6.92;100.00
10948;BME280;5526;42.070;24.752;2024-03-08T06:33:16;99288.56;;;7.00;100.00
10948;BME280;5526;42.070;24.752;2024-03-08T06:35:43;99284.16;;;7.00;100.00
10948;BME280;5526;42.070;24.752;2024-03-08T06:38:12;99294.19;;;7.03;100.00
10948;BME280;5526;42.070;24.752;2024-03-08T06:40:42;99292.13;;;7.05;100.00
10948;BME280;5526;42.070;24.752;2024-03-08T06:43:09;99295.00;;;7.15;100.00
10948;BME280;5526;42.070;24.752;2024-03-08T06:45:40;99297.97;;;7.19;100.00
10948;BME280;5526;42.070;24.752;2024-03-08T06:48:07;99297.66;;;7.27;100.00
10948;BME280;5526;42.070;24.752;2024-03-08T06:50:35;99298.78;;;7.19;100.00
10948;BME280;5526;42.070;24.752;2024-03-08T06:53:03;99302.31;;;7.25;100.00
10948;BME280;5526;42.070;24.752;2024-03-08T06:55:31;99299.59;;;7.31;100.00
10948;BME280;5526;42.070;24.752;2024-03-08T06:57:58;99305.38;;;7.33;100.00
10948;BME280;5526;42.070;24.752;2024-03-08T07:00:26;99316.66;;;7.34;100.00
10948;BME280;5526;42.070;24.752;2024-03-08T07:02:55;99312.69;;;7.31;100.00
10948;BME280;5526;42.070;24.752;2024-03-08T07:05:26;99313.94;;;7.29;100.00
10948;BME280;5526;42.070;24.752;2024-03-08T07:07:53;99313.50;;;7.32;100.00
10948;BME280;5526;42.070;24.752;2024-03-08T07:10:20;99315.41;;;7.36;100.00
10948;BME280;5526;42.070;24.752;2024-03-08T07:12:51;99313.50;;;7.43;100.00
10948;BME280;5526;42.070;24.752;2024-03-08T07:15:19;99313.16;;;7.40;100.00
10948;BME280;5526;42.070;24.752;2024-03-08T07:17:46;99318.84;;;7.48;100.00
10948;BME280;5526;42.070;24.752;2024-03-08T07:20:14;99320.47;;;7.49;100.00
10948;BME280;5526;42.070;24.752;2024-03-08T07:22:44;99316.38;;;7.53;100.00
10948;BME280;5526;42.070;24.752;2024-03-08T07:25:13;99313.19;;;7.51;100.00
10948;BME280;5526;42.070;24.752;2024-03-08T07:27:51;99322.28;;;7.49;100.00
10948;BME280;5526;42.070;24.752;2024-03-08T07:30:19;99326.97;;;7.58;100.00
10948;BME280;5526;42.070;24.752;2024-03-08T07:33:04;99319.56;;;7.55;100.00
10948;BME280;5526;42.070;24.752;2024-03-08T07:35:32;99326.97;;;7.58;100.00
10948;BME280;5526;42.070;24.752;2024-03-08T07:38:03;99321.41;;;7.66;100.00
10948;BME280;5526;42.070;24.752;2024-03-08T07:40:31;99327.09;;;7.63;100.00
10948;BME280;5526;42.070;24.752;2024-03-08T07:43:00;99327.53;;;7.60;100.00
10948;BME280;5526;42.070;24.752;2024-03-08T07:45:27;99325.94;;;7.59;100.00
10948;BME280;5526;42.070;24.752;2024-03-08T07:47:54;99331.75;;;7.61;100.00
10948;BME280;5526;42.070;24.752;2024-03-08T07:50:21;99334.06;;;7.69;100.00
10948;BME280;5526;42.070;24.752;2024-03-08T07:52:48;99331.06;;;7.66;100.00
10948;BME280;5526;42.070;24.752;2024-03-08T07:55:15;99324.34;;;7.70;100.00
10948;BME280;5526;42.070;24.752;2024-03-08T07:57:42;99323.66;;;7.63;100.00
10948;BME280;5526;42.070;24.752;2024-03-08T08:00:12;99337.00;;;7.73;100.00
10948;BME280;5526;42.070;24.752;2024-03-08T08:02:43;99328.91;;;7.74;100.00
10948;BME280;5526;42.070;24.752;2024-03-08T08:05:11;99325.72;;;7.72;100.00
10948;BME280;5526;42.070;24.752;2024-03-08T08:07:39;99329.47;;;7.76;100.00
10948;BME280;5526;42.070;24.752;2024-03-08T08:10:09;99335.41;;;7.72;100.00
10948;BME280;5526;42.070;24.752;2024-03-08T08:12:42;99338.16;;;7.77;100.00
10948;BME280;5526;42.070;24.752;2024-03-08T08:15:11;99334.75;;;7.88;100.00
10948;BME280;5526;42.070;24.752;2024-03-08T08:17:38;99339.75;;;7.89;100.00
10948;BME280;5526;42.070;24.752;2024-03-08T08:20:06;99348.72;;;7.82;100.00
10948;BME280;5526;42.070;24.752;2024-03-08T08:22:34;99347.03;;;7.76;100.00
10948;BME280;5526;42.070;24.752;2024-03-08T08:25:01;99345.34;;;7.81;100.00
10948;BME280;5526;42.070;24.752;2024-03-08T08:27:28;99348.53;;;7.95;100.00
10948;BME280;5526;42.070;24.752;2024-03-08T08:29:55;99345.44;;;8.09;100.00
10948;BME280;5526;42.070;24.752;2024-03-08T08:32:24;99346.00;;;8.11;100.00
10948;BME280;5526;42.070;24.752;2024-03-08T08:34:51;99335.13;;;8.93;100.00
10948;BME280;5526;42.070;24.752;2024-03-08T08:37:18;99342.53;;;8.68;100.00
10948;BME280;5526;42.070;24.752;2024-03-08T08:39:45;99352.75;;;8.42;100.00
10948;BME280;5526;42.070;24.752;2024-03-08T08:42:12;99351.13;;;8.41;100.00
10948;BME280;5526;42.070;24.752;2024-03-08T08:44:39;99350.13;;;8.42;100.00
10948;BME280;5526;42.070;24.752;2024-03-08T08:47:06;99349.91;;;8.43;100.00
10948;BME280;5526;42.070;24.752;2024-03-08T08:49:35;99348.59;;;8.57;100.00
10948;BME280;5526;42.070;24.752;2024-03-08T08:52:02;99344.50;;;8.61;100.00
10948;BME280;5526;42.070;24.752;2024-03-08T08:54:29;99342.53;;;8.68;100.00
10948;BME280;5526;42.070;24.752;2024-03-08T08:56:56;99344.47;;;8.73;100.00
10948;BME280;5526;42.070;24.752;2024-03-08T08:59:24;99344.50;;;8.89;100.00
10948;BME280;5526;42.070;24.752;2024-03-08T09:01:51;99349.31;;;8.93;100.00
10948;BME280;5526;42.070;24.752;2024-03-08T09:04:19;99347.88;;;9.02;100.00
10948;BME280;5526;42.070;24.752;2024-03-08T09:06:50;99351.63;;;9.06;100.00
10948;BME280;5526;42.070;24.752;2024-03-08T09:09:17;99345.00;;;9.15;100.00
10948;BME280;5526;42.070;24.752;2024-03-08T09:11:44;99349.13;;;9.11;100.00
10948;BME280;5526;42.070;24.752;2024-03-08T09:14:11;99352.25;;;9.24;100.00
10948;BME280;5526;42.070;24.752;2024-03-08T09:16:39;99349.06;;;9.22;100.00
10948;BME280;5526;42.070;24.752;2024-03-08T09:19:07;99342.72;;;9.35;100.00
10948;BME280;5526;42.070;24.752;2024-03-08T09:21:36;99346.47;;;9.39;100.00
10948;BME280;5526;42.070;24.752;2024-03-08T09:24:07;99352.00;;;9.54;100.00
10948;BME280;5526;42.070;24.752;2024-03-08T09:26:34;99349.75;;;9.46;100.00
10948;BME280;5526;42.070;24.752;2024-03-08T09:29:01;99347.22;;;9.51;100.00
10948;BME280;5526;42.070;24.752;2024-03-08T09:31:28;99346.78;;;9.42;100.00
10948;BME280;5526;42.070;24.752;2024-03-08T09:33:55;99355.09;;;9.51;100.00
10948;BME280;5526;42.070;24.752;2024-03-08T09:36:22;99352.69;;;9.49;100.00
10948;BME280;5526;42.070;24.752;2024-03-08T09:38:50;99356.72;;;9.24;100.00
10948;BME280;5526;42.070;24.752;2024-03-08T09:41:19;99344.31;;;9.36;100.00
10948;BME280;5526;42.070;24.752;2024-03-08T09:43:47;99347.84;;;9.58;100.00
10948;BME280;5526;42.070;24.752;2024-03-08T09:46:14;99345.78;;;9.76;100.00
10948;BME280;5526;42.070;24.752;2024-03-08T09:48:42;99353.25;;;9.84;100.00
10948;BME280;5526;42.070;24.752;2024-03-08T09:51:09;99351.66;;;10.33;100.00
10948;BME280;5526;42.070;24.752;2024-03-08T09:53:39;99357.41;;;9.97;100.00
10948;BME280;5526;42.070;24.752;2024-03-08T09:56:07;99355.31;;;9.82;100.00
10948;BME280;5526;42.070;24.752;2024-03-08T09:58:36;99351.03;;;9.76;100.00
10948;BME280;5526;42.070;24.752;2024-03-08T10:01:20;99355.25;;;9.77;100.00
10948;BME280;5526;42.070;24.752;2024-03-08T10:03:48;99345.91;;;10.36;100.00
10948;BME280;5526;42.070;24.752;2024-03-08T10:06:16;99347.88;;;10.07;100.00
10948;BME280;5526;42.070;24.752;2024-03-08T10:08:43;99351.66;;;10.00;100.00
10948;BME280;5526;42.070;24.752;2024-03-08T10:11:10;99351.81;;;9.93;100.00
10948;BME280;5526;42.070;24.752;2024-03-08T10:13:39;99348.94;;;9.95;100.00
10948;BME280;5526;42.070;24.752;2024-03-08T10:16:07;99344.16;;;9.92;100.00
10948;BME280;5526;42.070;24.752;2024-03-08T10:18:34;99341.69;;;10.02;100.00
10948;BME280;5526;42.070;24.752;2024-03-08T10:21:03;99345.78;;;10.09;100.00
10948;BME280;5526;42.070;24.752;2024-03-08T10:23:31;99338.34;;;10.23;100.00
10948;BME280;5526;42.070;24.752;2024-03-08T10:26:09;99335.06;;;10.32;100.00
10948;BME280;5526;42.070;24.752;2024-03-08T10:28:40;99337.22;;;10.57;100.00
10948;BME280;5526;42.070;24.752;2024-03-08T10:31:07;99342.72;;;10.34;100.00
10948;BME280;5526;42.070;24.752;2024-03-08T10:33:35;99344.63;;;10.38;100.00
10948;BME280;5526;42.070;24.752;2024-03-08T10:36:06;99334.94;;;10.22;100.00
10948;BME280;5526;42.070;24.752;2024-03-08T10:38:36;99331.31;;;10.28;100.00
10948;BME280;5526;42.070;24.752;2024-03-08T10:41:05;99347.59;;;10.25;100.00
10948;BME280;5526;42.070;24.752;2024-03-08T10:43:43;99339.22;;;10.28;100.00
10948;BME280;5526;42.070;24.752;2024-03-08T10:46:19;99338.19;;;10.29;100.00
10948;BME280;5526;42.070;24.752;2024-03-08T10:48:49;99336.97;;;10.37;100.00
10948;BME280;5526;42.070;24.752;2024-03-08T10:51:19;99312.03;;;10.23;100.00
10948;BME280;5526;42.070;24.752;2024-03-08T10:53:47;99338.31;;;10.39;100.00
10948;BME280;5526;42.070;24.752;2024-03-08T10:56:16;99338.81;;;10.58;100.00
10948;BME280;5526;42.070;24.752;2024-03-08T10:58:46;99333.69;;;10.68;100.00
10948;BME280;5526;42.070;24.752;2024-03-08T11:01:14;99336.34;;;10.73;100.00
10948;BME280;5526;42.070;24.752;2024-03-08T11:03:44;99328.50;;;10.78;100.00
10948;BME280;5526;42.070;24.752;2024-03-08T11:06:15;99332.38;;;10.70;100.00
10948;BME280;5526;42.070;24.752;2024-03-08T11:08:43;99318.50;;;10.53;100.00
10948;BME280;5526;42.070;24.752;2024-03-08T11:11:28;99321.63;;;10.50;100.00
10948;BME280;5526;42.070;24.752;2024-03-08T11:14:02;99317.50;;;10.38;100.00
10948;BME280;5526;42.070;24.752;2024-03-08T11:16:39;99316.53;;;10.44;100.00
10948;BME280;5526;42.070;24.752;2024-03-08T11:19:24;99323.38;;;10.45;100.00
10948;BME280;5526;42.070;24.752;2024-03-08T11:22:03;99325.28;;;10.49;100.00
10948;BME280;5526;42.070;24.752;2024-03-08T11:24:39;99323.09;;;10.84;100.00
10948;BME280;5526;42.070;24.752;2024-03-08T11:27:07;99331.44;;;11.03;100.00
10948;BME280;5526;42.070;24.752;2024-03-08T11:29:40;99326.91;;;11.25;100.00
10948;BME280;5526;42.070;24.752;2024-03-08T11:32:11;99327.63;;;11.47;100.00
10948;BME280;5526;42.070;24.752;2024-03-08T11:34:40;99328.25;;;11.59;100.00
10948;BME280;5526;42.070;24.752;2024-03-08T11:37:12;99321.94;;;11.60;100.00
10948;BME280;5526;42.070;24.752;2024-03-08T11:39:41;99319.34;;;11.96;100.00
10948;BME280;5526;42.070;24.752;2024-03-08T11:42:14;99309.63;;;12.02;100.00
10948;BME280;5526;42.070;24.752;2024-03-08T11:44:42;99310.81;;;12.26;100.00
10948;BME280;5526;42.070;24.752;2024-03-08T11:47:10;99297.19;;;12.44;100.00
10948;BME280;5526;42.070;24.752;2024-03-08T11:49:37;99298.25;;;12.43;100.00
10948;BME280;5526;42.070;24.752;2024-03-08T11:52:05;99310.81;;;12.26;100.00
10948;BME280;5526;42.070;24.752;2024-03-08T11:54:32;99297.44;;;12.37;100.00
10948;BME280;5526;42.070;24.752;2024-03-08T11:57:00;99299.75;;;12.34;100.00
10948;BME280;5526;42.070;24.752;2024-03-08T11:59:28;99294.53;;;12.39;100.00
10948;BME280;5526;42.070;24.752;2024-03-08T12:02:02;99294.75;;;12.32;100.00
10948;BME280;5526;42.070;24.752;2024-03-08T12:04:29;99291.09;;;12.43;100.00
10948;BME280;5526;42.070;24.752;2024-03-08T12:06:59;99290.91;;;12.60;100.00
10948;BME280;5526;42.070;24.752;2024-03-08T12:09:34;99288.84;;;12.72;100.00
10948;BME280;5526;42.070;24.752;2024-03-08T12:12:02;99290.47;;;12.93;100.00
10948;BME280;5526;42.070;24.752;2024-03-08T12:14:30;99291.31;;;12.98;100.00
10948;BME280;5526;42.070;24.752;2024-03-08T12:16:58;99293.09;;;12.78;100.00
10948;BME280;5526;42.070;24.752;2024-03-08T12:19:28;99291.03;;;13.00;100.00
10948;BME280;5526;42.070;24.752;2024-03-08T12:21:55;99281.34;;;12.49;100.00
10948;BME280;5526;42.070;24.752;2024-03-08T12:24:22;99286.06;;;12.32;100.00
10948;BME280;5526;42.070;24.752;2024-03-08T12:26:49;99289.22;;;12.34;100.00
10948;BME280;5526;42.070;24.752;2024-03-08T12:29:21;99278.31;;;12.15;100.00
10948;BME280;5526;42.070;24.752;2024-03-08T12:31:54;99296.50;;;12.12;100.00
10948;BME280;5526;42.070;24.752;2024-03-08T12:34:24;99282.91;;;11.93;100.00
10948;BME280;5526;42.070;24.752;2024-03-08T12:36:54;99279.53;;;11.98;100.00
10948;BME280;5526;42.070;24.752;2024-03-08T12:39:22;99281.16;;;12.04;100.00
10948;BME280;5526;42.070;24.752;2024-03-08T12:41:52;99280.34;;;11.98;100.00
10948;BME280;5526;42.070;24.752;2024-03-08T12:44:19;99283.75;;;11.99;100.00
10948;BME280;5526;42.070;24.752;2024-03-08T12:46:47;99275.06;;;12.03;100.00
10948;BME280;5526;42.070;24.752;2024-03-08T12:49:14;99278.72;;;12.44;100.00
10948;BME280;5526;42.070;24.752;2024-03-08T12:51:43;99271.25;;;13.08;100.00
10948;BME280;5526;42.070;24.752;2024-03-08T12:54:12;99273.66;;;13.49;100.00
10948;BME280;5526;42.070;24.752;2024-03-08T12:56:39;99266.72;;;13.83;100.00
10948;BME280;5526;42.070;24.752;2024-03-08T12:59:07;99272.25;;;14.07;100.00
10948;BME280;5526;42.070;24.752;2024-03-08T13:01:35;99264.03;;;14.23;100.00
10948;BME280;5526;42.070;24.752;2024-03-08T13:04:04;99273.44;;;14.49;100.00